Time;durP1;ratioP1;P1;durP2;ratioP2;P2;SDS_P1;SDS_P2;PMS_P1;PMS_P2;Temp;Humidity;BMP_temperature;BMP_pressure;BME280_temperature;BME280_humidity;BME280_pressure;Samples;Min_cycle;Max_cycle;Signal;HPM_P1;HPM_P2
2021/09/29 00:00:40;;;;;;;11.18;7.38;;;;;;;;;;5013902;28;20391;-81
2021/09/29 00:03:08;;;;;;;11.77;7.18;;;;;;;;;;5012920;28;20046;-82
2021/09/29 00:05:38;;;;;;;10.18;7.93;;;;;;;;;;5013904;28;20049;-81
2021/09/29 00:08:08;;;;;;;8.13;7.03;;;;;;;;;;5014604;28;20037;-82
2021/09/29 00:10:36;;;;;;;8.27;6.65;;;;;;;;;;5013807;28;20056;-82
2021/09/29 00:13:05;;;;;;;10.52;8.20;;;;;;;;;;5014172;28;20049;-81
2021/09/29 00:15:33;;;;;;;25.10;9.98;;;;;;;;;;5013594;28;20050;-82
2021/09/29 00:18:01;;;;;;;7.97;6.45;;;;;;;;;;5013743;28;20042;-81
2021/09/29 00:20:29;;;;;;;9.48;6.53;;;;;;;;;;5013511;28;20050;-81
2021/09/29 00:22:57;;;;;;;9.48;6.95;;;;;;;;;;5014067;28;20063;-82
2021/09/29 00:25:25;;;;;;;7.80;5.80;;;;;;;;;;5013261;28;20042;-81
2021/09/29 00:27:53;;;;;;;10.02;6.70;;;;;;;;;;5012593;28;20054;-81
2021/09/29 00:30:21;;;;;;;9.38;7.38;;;;;;;;;;5013236;28;20049;-82
2021/09/29 00:32:49;;;;;;;13.13;5.88;;;;;;;;;;5013527;28;20388;-81
2021/09/29 00:35:17;;;;;;;7.70;6.53;;;;;;;;;;5013757;28;20050;-82
2021/09/29 00:37:45;;;;;;;14.38;6.35;;;;;;;;;;5013495;28;20052;-82
2021/09/29 00:40:13;;;;;;;7.40;5.63;;;;;;;;;;5013511;28;20050;-82
2021/09/29 00:42:41;;;;;;;8.27;7.05;;;;;;;;;;5011441;28;20061;-82
2021/09/29 00:45:09;;;;;;;9.32;6.80;;;;;;;;;;5011871;28;20053;-82
2021/09/29 00:47:37;;;;;;;10.02;6.25;;;;;;;;;;5013611;28;20087;-82
2021/09/29 00:50:06;;;;;;;7.80;6.05;;;;;;;;;;5012949;28;20419;-82
2021/09/29 00:52:35;;;;;;;11.25;7.22;;;;;;;;;;5013024;28;20755;-81
2021/09/29 00:55:03;;;;;;;8.48;6.85;;;;;;;;;;5012942;28;20057;-81
2021/09/29 00:57:31;;;;;;;9.75;7.05;;;;;;;;;;5012983;28;20407;-81
2021/09/29 00:59:59;;;;;;;9.48;7.90;;;;;;;;;;5013384;28;20046;-82
2021/09/29 01:02:27;;;;;;;10.73;6.93;;;;;;;;;;5012751;28;20046;-82
2021/09/29 01:04:55;;;;;;;10.15;7.72;;;;;;;;;;5012620;28;20061;-82
2021/09/29 01:07:25;;;;;;;11.20;9.27;;;;;;;;;;5013256;28;20050;-81
2021/09/29 01:10:02;;;;;;;9.90;7.75;;;;;;;;;;5012277;28;20046;-82
2021/09/29 01:12:53;;;;;;;9.88;7.70;;;;;;;;;;5012959;28;20129;-82
2021/09/29 01:15:23;;;;;;;10.45;7.22;;;;;;;;;;5013005;28;20049;-82
2021/09/29 01:17:53;;;;;;;8.53;7.13;;;;;;;;;;5012706;28;20514;-82
2021/09/29 01:20:34;;;;;;;9.32;8.05;;;;;;;;;;4998991;28;20635;-82
2021/09/29 01:23:02;;;;;;;;;;;;;;;;;;5006971;28;20590;-82
2021/09/29 01:25:42;;;;;;;11.52;9.20;;;;;;;;;;4991844;28;20367;-82
2021/09/29 01:28:11;;;;;;;11.25;7.60;;;;;;;;;;4993382;28;20050;-82
2021/09/29 01:30:39;;;;;;;11.52;9.30;;;;;;;;;;4991163;28;20507;-81
2021/09/29 01:33:08;;;;;;;10.70;7.70;;;;;;;;;;4991780;28;20050;-82
2021/09/29 01:35:36;;;;;;;13.15;7.93;;;;;;;;;;4993101;28;20420;-82
2021/09/29 01:38:05;;;;;;;13.43;10.60;;;;;;;;;;4992872;28;20054;-82
2021/09/29 01:40:33;;;;;;;13.98;10.10;;;;;;;;;;4992429;28;20057;-81
2021/09/29 01:43:01;;;;;;;12.40;10.57;;;;;;;;;;4992937;28;20388;-82
2021/09/29 01:45:29;;;;;;;10.43;7.57;;;;;;;;;;5003368;28;20054;-81
2021/09/29 01:47:57;;;;;;;10.45;6.75;;;;;;;;;;5012633;28;20061;-82
2021/09/29 01:50:27;;;;;;;10.27;7.50;;;;;;;;;;4994610;28;20117;-82
2021/09/29 01:52:57;;;;;;;13.88;8.43;;;;;;;;;;5008854;28;20065;-81
2021/09/29 01:55:31;;;;;;;11.85;8.68;;;;;;;;;;5012066;28;20054;-82
2021/09/29 01:58:00;;;;;;;15.75;11.60;;;;;;;;;;5011676;28;20073;-82
2021/09/29 02:00:28;;;;;;;13.15;9.80;;;;;;;;;;5011788;28;20049;-82
2021/09/29 02:02:56;;;;;;;14.20;11.25;;;;;;;;;;5012216;28;20057;-82
2021/09/29 02:05:29;;;;;;;12.20;9.32;;;;;;;;;;5011578;28;20042;-82
2021/09/29 02:07:58;;;;;;;17.33;10.77;;;;;;;;;;5012135;28;20137;-82
2021/09/29 02:10:26;;;;;;;15.40;11.25;;;;;;;;;;5011446;28;20069;-82
2021/09/29 02:12:54;;;;;;;15.35;12.13;;;;;;;;;;5012074;28;20053;-83
2021/09/29 02:15:22;;;;;;;12.48;9.55;;;;;;;;;;5012240;28;20045;-82
2021/09/29 02:17:52;;;;;;;15.93;10.85;;;;;;;;;;5009527;28;20514;-82
2021/09/29 02:20:20;;;;;;;17.55;11.65;;;;;;;;;;5008377;28;20046;-82
2021/09/29 02:22:48;;;;;;;19.80;10.32;;;;;;;;;;4992727;28;20395;-83
2021/09/29 02:25:16;;;;;;;25.85;14.45;;;;;;;;;;5011138;28;20041;-82
2021/09/29 02:27:44;;;;;;;18.45;11.07;;;;;;;;;;5012020;28;20037;-82
2021/09/29 02:30:13;;;;;;;22.00;16.02;;;;;;;;;;5010081;28;20410;-81
2021/09/29 02:32:41;;;;;;;19.70;13.95;;;;;;;;;;5011624;28;20052;-82
2021/09/29 02:35:10;;;;;;;29.60;14.93;;;;;;;;;;5011276;28;20046;-81
2021/09/29 02:37:38;;;;;;;31.13;16.35;;;;;;;;;;5011187;28;20049;-81
2021/09/29 02:40:07;;;;;;;24.67;11.82;;;;;;;;;;5011506;28;20053;-80
2021/09/29 02:42:40;;;;;;;27.20;16.50;;;;;;;;;;5011154;28;20065;-81
2021/09/29 02:45:08;;;;;;;26.23;14.20;;;;;;;;;;5011143;28;20046;-82
2021/09/29 02:47:36;;;;;;;21.77;14.95;;;;;;;;;;4994818;28;20062;-82
2021/09/29 02:50:05;;;;;;;22.77;14.32;;;;;;;;;;4991543;28;20061;-82
2021/09/29 02:52:34;;;;;;;21.48;14.07;;;;;;;;;;5002161;28;20041;-83
2021/09/29 02:55:03;;;;;;;23.25;15.90;;;;;;;;;;5011162;28;20053;-82
2021/09/29 02:57:31;;;;;;;26.70;15.50;;;;;;;;;;5010612;28;20435;-81
2021/09/29 02:59:59;;;;;;;23.63;15.52;;;;;;;;;;5011921;28;20057;-83
2021/09/29 03:02:27;;;;;;;26.10;15.43;;;;;;;;;;5011169;28;20066;-83
2021/09/29 03:04:55;;;;;;;29.25;12.27;;;;;;;;;;5009956;28;20514;-81
2021/09/29 03:07:23;;;;;;;24.15;13.07;;;;;;;;;;5011688;28;20400;-82
2021/09/29 03:09:51;;;;;;;22.90;15.05;;;;;;;;;;5010783;28;20045;-82
2021/09/29 03:12:19;;;;;;;25.77;14.85;;;;;;;;;;5010349;28;20046;-82
2021/09/29 03:14:47;;;;;;;21.38;12.75;;;;;;;;;;5010720;28;20397;-81
2021/09/29 03:17:15;;;;;;;22.50;14.48;;;;;;;;;;5010947;28;20049;-83
2021/09/29 03:19:43;;;;;;;23.20;13.68;;;;;;;;;;5002790;28;20054;-81
2021/09/29 03:22:12;;;;;;;23.75;14.85;;;;;;;;;;4991313;28;20058;-83
2021/09/29 03:24:40;;;;;;;24.05;14.10;;;;;;;;;;4991051;28;20416;-81
2021/09/29 03:27:08;;;;;;;25.02;15.18;;;;;;;;;;5010247;28;20049;-82
2021/09/29 03:29:37;;;;;;;23.08;14.27;;;;;;;;;;5011016;28;20050;-81
2021/09/29 03:32:05;;;;;;;21.23;13.63;;;;;;;;;;5011407;28;20041;-82
2021/09/29 03:34:33;;;;;;;23.08;15.35;;;;;;;;;;5010861;28;20037;-82
2021/09/29 03:37:01;;;;;;;23.63;17.42;;;;;;;;;;5010487;28;20046;-82
2021/09/29 03:39:29;;;;;;;23.10;14.07;;;;;;;;;;5011345;28;20057;-81
2021/09/29 03:41:57;;;;;;;27.38;14.82;;;;;;;;;;5010141;28;20058;-82
2021/09/29 03:44:25;;;;;;;33.05;13.38;;;;;;;;;;5010811;28;20061;-81
2021/09/29 03:46:53;;;;;;;21.65;14.48;;;;;;;;;;5010119;28;20042;-81
2021/09/29 03:49:21;;;;;;;24.63;13.70;;;;;;;;;;5012213;28;20048;-81
2021/09/29 03:51:49;;;;;;;25.55;15.20;;;;;;;;;;5014680;28;20387;-81
2021/09/29 03:54:17;;;;;;;28.40;15.73;;;;;;;;;;5014022;28;20054;-81
2021/09/29 03:56:45;;;;;;;23.13;14.27;;;;;;;;;;5011785;28;20054;-82
2021/09/29 03:59:13;;;;;;;23.55;13.70;;;;;;;;;;5013455;28;20054;-82
2021/09/29 04:01:42;;;;;;;20.55;14.93;;;;;;;;;;5014070;28;20057;-83
2021/09/29 04:04:10;;;;;;;27.33;17.00;;;;;;;;;;4997143;28;20525;-82
2021/09/29 04:06:38;;;;;;;22.95;12.07;;;;;;;;;;5013915;28;20042;-82
2021/09/29 04:09:06;;;;;;;25.17;14.05;;;;;;;;;;5013920;28;20069;-82
2021/09/29 04:11:34;;;;;;;26.65;13.98;;;;;;;;;;5013979;28;20057;-82
2021/09/29 04:14:02;;;;;;;20.27;14.57;;;;;;;;;;5014036;28;20388;-83
2021/09/29 04:16:30;;;;;;;25.10;17.33;;;;;;;;;;5012575;28;20122;-83
2021/09/29 04:18:59;;;;;;;21.65;14.18;;;;;;;;;;5014336;28;20471;-83
2021/09/29 04:21:27;;;;;;;22.25;13.20;;;;;;;;;;5013256;28;20038;-82
2021/09/29 04:23:55;;;;;;;20.25;12.90;;;;;;;;;;5011877;28;20155;-84
2021/09/29 04:26:25;;;;;;;21.35;12.48;;;;;;;;;;4982991;28;20407;-82
2021/09/29 04:28:53;;;;;;;21.98;14.95;;;;;;;;;;4994196;28;20055;-81
2021/09/29 04:31:21;;;;;;;23.52;13.20;;;;;;;;;;4994322;28;20053;-83
2021/09/29 04:33:49;;;;;;;23.55;14.75;;;;;;;;;;4992323;28;20495;-83
2021/09/29 04:36:17;;;;;;;27.13;16.08;;;;;;;;;;4992519;28;20058;-82
2021/09/29 04:38:45;;;;;;;21.02;14.43;;;;;;;;;;4993777;28;20042;-82
2021/09/29 04:41:13;;;;;;;19.73;13.32;;;;;;;;;;4993875;28;20062;-80
2021/09/29 04:43:41;;;;;;;19.33;11.65;;;;;;;;;;5004106;28;20404;-80
2021/09/29 04:46:09;;;;;;;17.35;12.70;;;;;;;;;;5003754;28;20484;-80
2021/09/29 04:48:37;;;;;;;26.30;11.65;;;;;;;;;;4997427;28;20045;-80
2021/09/29 04:51:05;;;;;;;17.48;11.82;;;;;;;;;;5013279;28;20047;-84
2021/09/29 04:53:33;;;;;;;28.50;14.85;;;;;;;;;;5011004;28;20563;-82
2021/09/29 04:56:01;;;;;;;22.35;12.40;;;;;;;;;;5001616;28;20045;-82
2021/09/29 04:58:29;;;;;;;20.83;11.98;;;;;;;;;;5010850;28;20053;-83
2021/09/29 05:00:57;;;;;;;22.92;11.45;;;;;;;;;;5012696;28;20050;-82
2021/09/29 05:03:29;;;;;;;21.40;10.38;;;;;;;;;;5013296;28;20054;-82
2021/09/29 05:05:57;;;;;;;17.55;10.35;;;;;;;;;;5012581;28;20522;-82
2021/09/29 05:08:26;;;;;;;17.25;13.38;;;;;;;;;;5011653;28;20057;-82
2021/09/29 05:10:55;;;;;;;20.65;11.35;;;;;;;;;;5012979;28;20050;-83
2021/09/29 05:13:25;;;;;;;15.07;11.00;;;;;;;;;;5012562;28;20049;-82
2021/09/29 05:15:53;;;;;;;18.85;12.35;;;;;;;;;;5011717;28;20061;-83
2021/09/29 05:18:21;;;;;;;17.60;11.00;;;;;;;;;;5011227;28;20046;-82
2021/09/29 05:20:49;;;;;;;17.13;12.52;;;;;;;;;;5012017;28;20574;-82
2021/09/29 05:23:17;;;;;;;20.20;10.18;;;;;;;;;;5013105;28;20061;-79
2021/09/29 05:25:45;;;;;;;17.25;10.18;;;;;;;;;;5010832;28;20053;-84
2021/09/29 05:28:16;;;;;;;21.30;12.45;;;;;;;;;;5012764;28;20046;-84
2021/09/29 05:30:45;;;;;;;20.33;11.07;;;;;;;;;;5011155;28;20069;-83
2021/09/29 05:33:13;;;;;;;14.77;10.52;;;;;;;;;;5012400;28;20041;-83
2021/09/29 05:35:41;;;;;;;19.33;11.60;;;;;;;;;;5013187;28;20042;-83
2021/09/29 05:38:09;;;;;;;20.38;12.65;;;;;;;;;;5012520;28;20065;-83
2021/09/29 05:40:37;;;;;;;16.88;11.18;;;;;;;;;;5011733;28;20377;-83
2021/09/29 05:43:05;;;;;;;20.95;12.32;;;;;;;;;;4995137;28;20061;-83
2021/09/29 05:45:33;;;;;;;19.48;10.82;;;;;;;;;;4994688;28;20058;-83
2021/09/29 05:48:01;;;;;;;17.35;11.38;;;;;;;;;;5012661;28;20052;-83
2021/09/29 05:50:29;;;;;;;18.30;11.77;;;;;;;;;;5010511;28;20601;-83
2021/09/29 05:52:57;;;;;;;19.10;11.38;;;;;;;;;;5010639;28;20046;-83
2021/09/29 05:55:25;;;;;;;19.25;12.57;;;;;;;;;;5010803;28;20435;-83
2021/09/29 05:57:53;;;;;;;13.73;9.35;;;;;;;;;;5009627;28;20056;-83
2021/09/29 06:00:21;;;;;;;20.83;11.05;;;;;;;;;;5012246;28;20360;-83
2021/09/29 06:02:49;;;;;;;17.33;10.48;;;;;;;;;;5010405;28;20049;-83
2021/09/29 06:05:18;;;;;;;12.70;9.70;;;;;;;;;;5011533;28;20137;-83
2021/09/29 06:07:46;;;;;;;13.45;8.95;;;;;;;;;;5011944;28;20077;-83
2021/09/29 06:10:14;;;;;;;15.43;9.55;;;;;;;;;;5010074;28;20049;-83
2021/09/29 06:12:42;;;;;;;17.02;9.95;;;;;;;;;;5010140;28;20046;-84
2021/09/29 06:15:17;;;;;;;15.85;10.18;;;;;;;;;;4994578;28;20084;-83
2021/09/29 06:17:54;;;;;;;19.42;10.23;;;;;;;;;;5010276;28;20065;-83
2021/09/29 06:20:22;;;;;;;14.57;9.43;;;;;;;;;;4978180;28;20053;-83
2021/09/29 06:22:50;;;;;;;13.20;9.63;;;;;;;;;;5011553;28;20053;-83
2021/09/29 06:25:20;;;;;;;15.95;12.65;;;;;;;;;;5009878;28;20395;-83
2021/09/29 06:27:48;;;;;;;12.98;8.05;;;;;;;;;;5011927;28;20053;-83
2021/09/29 06:30:16;;;;;;;17.90;10.38;;;;;;;;;;5010037;28;20045;-83
2021/09/29 06:32:44;;;;;;;14.63;8.70;;;;;;;;;;5010232;28;20042;-83
2021/09/29 06:35:13;;;;;;;13.05;8.02;;;;;;;;;;5011934;28;20069;-83
2021/09/29 06:37:44;;;;;;;17.48;11.75;;;;;;;;;;4994137;28;20049;-82
2021/09/29 06:40:13;;;;;;;;;;;;;;;;;;4985709;28;20054;-82
2021/09/29 06:42:51;;;;;;;19.48;9.80;;;;;;;;;;5004385;28;19925;-82
2021/09/29 06:45:21;;;;;;;18.40;8.75;;;;;;;;;;5009739;28;20046;-82
2021/09/29 06:47:50;;;;;;;12.40;8.18;;;;;;;;;;5010612;28;20057;-82
2021/09/29 06:50:21;;;;;;;11.52;7.88;;;;;;;;;;5008634;28;20046;-82
2021/09/29 06:52:57;;;;;;;13.40;8.77;;;;;;;;;;5010459;28;20060;-82
2021/09/29 06:55:25;;;;;;;12.75;8.05;;;;;;;;;;5009938;28;20050;-82
2021/09/29 06:57:53;;;;;;;13.43;8.32;;;;;;;;;;5009821;28;20042;-82
2021/09/29 07:00:22;;;;;;;13.05;8.52;;;;;;;;;;5010061;28;20469;-81
2021/09/29 07:02:51;;;;;;;16.77;10.93;;;;;;;;;;4987844;28;20049;-82
2021/09/29 07:05:20;;;;;;;19.05;9.23;;;;;;;;;;4997120;28;20458;-81
2021/09/29 07:07:48;;;;;;;14.18;7.13;;;;;;;;;;5008899;28;20065;-81
2021/09/29 07:10:16;;;;;;;10.18;6.72;;;;;;;;;;5006571;28;20507;-86
2021/09/29 07:12:45;;;;;;;12.82;8.75;;;;;;;;;;5008081;28;20477;-82
2021/09/29 07:15:14;;;;;;;7.47;5.00;;;;;;;;;;5009645;28;20062;-82
2021/09/29 07:17:43;;;;;;;6.07;5.18;;;;;;;;;;5009502;28;20042;-83
2021/09/29 07:20:12;;;;;;;8.63;5.80;;;;;;;;;;4995256;28;20051;-82
2021/09/29 07:22:41;;;;;;;4.93;3.97;;;;;;;;;;4989160;28;20058;-81
2021/09/29 07:25:09;;;;;;;5.75;4.82;;;;;;;;;;4991701;28;20038;-82
2021/09/29 07:27:38;;;;;;;6.03;5.05;;;;;;;;;;5002388;28;20050;-82
2021/09/29 07:30:10;;;;;;;6.22;3.75;;;;;;;;;;4975485;28;20050;-83
2021/09/29 07:32:39;;;;;;;3.25;2.95;;;;;;;;;;4992046;28;20046;-83
2021/09/29 07:35:08;;;;;;;5.13;3.90;;;;;;;;;;5001951;28;20053;-83
2021/09/29 07:37:36;;;;;;;5.10;3.22;;;;;;;;;;5012848;28;20053;-82
2021/09/29 07:40:06;;;;;;;3.17;2.90;;;;;;;;;;5012194;28;20383;-83
2021/09/29 07:42:35;;;;;;;5.05;3.65;;;;;;;;;;5012692;28;20046;-83
2021/09/29 07:45:08;;;;;;;4.20;3.58;;;;;;;;;;5012661;28;20049;-83
2021/09/29 07:47:36;;;;;;;7.25;3.90;;;;;;;;;;5013099;28;20060;-83
2021/09/29 07:50:06;;;;;;;4.10;3.15;;;;;;;;;;5012012;28;20045;-83
2021/09/29 07:52:35;;;;;;;3.85;3.47;;;;;;;;;;5012382;28;20062;-82
2021/09/29 07:55:03;;;;;;;8.80;3.78;;;;;;;;;;5012338;28;20061;-83
2021/09/29 07:57:43;;;;;;;2.53;2.08;;;;;;;;;;5007752;28;20045;-83
2021/09/29 08:00:13;;;;;;;3.92;3.58;;;;;;;;;;4998185;28;20049;-83
2021/09/29 08:02:42;;;;;;;3.67;3.08;;;;;;;;;;5012402;28;20403;-83
2021/09/29 08:05:11;;;;;;;5.28;4.63;;;;;;;;;;5012339;28;20057;-83
2021/09/29 08:07:48;;;;;;;4.13;3.70;;;;;;;;;;5012842;28;20781;-83
2021/09/29 08:10:17;;;;;;;5.50;3.72;;;;;;;;;;5011381;28;20570;-83
2021/09/29 08:12:51;;;;;;;3.80;3.42;;;;;;;;;;5012018;28;20057;-83
2021/09/29 08:15:20;;;;;;;2.65;2.45;;;;;;;;;;5012807;28;20054;-83
2021/09/29 08:17:49;;;;;;;3.05;2.78;;;;;;;;;;5011448;28;20038;-83
2021/09/29 08:20:19;;;;;;;2.50;2.30;;;;;;;;;;5011005;28;20057;-83
2021/09/29 08:22:54;;;;;;;4.10;2.85;;;;;;;;;;5012011;28;20046;-83
2021/09/29 08:33:19;;;;;;;5.10;3.97;;;;;;;;;;5011734;28;20054;-83
2021/09/29 08:44:10;;;;;;;3.75;3.55;;;;;;;;;;5011930;28;20054;-84
2021/09/29 08:46:50;;;;;;;5.35;2.97;;;;;;;;;;5011428;28;20049;-83
2021/09/29 09:16:46;;;;;;;2.55;2.35;;;;;;;;;;4990387;28;20293;-81
2021/09/29 09:19:16;;;;;;;4.53;2.28;;;;;;;;;;5006426;28;20048;-81
2021/09/29 09:21:54;;;;;;;5.45;1.52;;;;;;;;;;5010433;28;20053;-81
2021/09/29 09:24:24;;;;;;;2.15;2.05;;;;;;;;;;5011552;28;20061;-83
2021/09/29 09:27:09;;;;;;;2.80;1.38;;;;;;;;;;5008824;28;20053;-82
2021/09/29 09:29:45;;;;;;;6.30;2.10;;;;;;;;;;5010584;28;20045;-81
2021/09/29 09:32:15;;;;;;;2.67;2.05;;;;;;;;;;5010957;28;20064;-83
2021/09/29 09:34:43;;;;;;;3.53;1.83;;;;;;;;;;5010288;28;20042;-82
2021/09/29 09:37:13;;;;;;;2.83;1.90;;;;;;;;;;5010906;28;20049;-80
2021/09/29 09:39:43;;;;;;;3.97;1.60;;;;;;;;;;5009431;28;20125;-81
2021/09/29 09:42:12;;;;;;;2.28;2.08;;;;;;;;;;5010197;28;20058;-82
2021/09/29 09:44:42;;;;;;;2.88;2.58;;;;;;;;;;5009534;28;20045;-80
2021/09/29 09:47:16;;;;;;;8.15;1.73;;;;;;;;;;5010688;28;20046;-81
2021/09/29 09:49:48;;;;;;;1.35;1.25;;;;;;;;;;5010337;28;20049;-81
2021/09/29 09:52:28;;;;;;;1.90;1.80;;;;;;;;;;5011132;28;20048;-81
2021/09/29 09:55:03;;;;;;;1.60;1.50;;;;;;;;;;5009526;28;20054;-80
2021/09/29 09:57:33;;;;;;;1.60;1.50;;;;;;;;;;5000689;28;20050;-80
2021/09/29 10:00:02;;;;;;;3.42;1.17;;;;;;;;;;5003627;28;20042;-80
2021/09/29 10:02:44;;;;;;;1.75;1.38;;;;;;;;;;5010193;28;20768;-80
2021/09/29 10:05:14;;;;;;;3.72;1.58;;;;;;;;;;5009326;28;20479;-81
2021/09/29 10:07:42;;;;;;;5.53;2.15;;;;;;;;;;5009609;28;20057;-80
2021/09/29 10:24:01;;;;;;;0.70;0.70;;;;;;;;;;5010270;28;20052;-81
2021/09/29 10:26:30;;;;;;;1.23;1.13;;;;;;;;;;5008047;28;20045;-84
2021/09/29 10:29:08;;;;;;;0.95;0.90;;;;;;;;;;5007324;28;20053;-82
2021/09/29 10:32:14;;;;;;;2.88;1.00;;;;;;;;;;5009874;28;20061;-81
2021/09/29 10:34:40;;;;;;;1.08;1.00;;;;;;;;;;5008071;28;20045;-81
2021/09/29 10:37:26;;;;;;;0.82;0.73;;;;;;;;;;5009771;28;20050;-81
2021/09/29 10:43:07;;;;;;;0.68;0.68;;;;;;;;;;5007840;28;20057;-82
2021/09/29 10:45:43;;;;;;;6.80;3.50;;;;;;;;;;4991889;28;20046;-81
2021/09/29 11:28:24;;;;;;;1.67;1.17;;;;;;;;;;5013512;28;20041;-79
2021/09/29 11:33:32;;;;;;;0.77;0.77;;;;;;;;;;4990044;28;20050;-82
2021/09/29 12:12:23;;;;;;;2.35;1.17;;;;;;;;;;5011771;28;20047;-80
2021/09/29 12:14:56;;;;;;;2.13;0.77;;;;;;;;;;5011585;28;20053;-81
2021/09/29 12:17:26;;;;;;;1.40;1.30;;;;;;;;;;5011681;28;20586;-82
2021/09/29 12:19:57;;;;;;;2.60;1.67;;;;;;;;;;5011854;28;20048;-81
2021/09/29 12:22:26;;;;;;;2.72;1.30;;;;;;;;;;5010043;28;20060;-79
2021/09/29 12:25:40;;;;;;;0.98;0.98;;;;;;;;;;5010410;28;20042;-80
2021/09/29 12:30:49;;;;;;;1.05;0.73;;;;;;;;;;5019224;28;20048;-80
2021/09/29 12:35:54;;;;;;;8.02;1.45;;;;;;;;;;5017985;28;20053;-80
2021/09/29 12:38:33;;;;;;;0.80;0.80;;;;;;;;;;5011602;28;20045;-78
2021/09/29 12:41:01;;;;;;;2.92;0.93;;;;;;;;;;5010210;28;20054;-78
2021/09/29 12:43:29;;;;;;;1.88;1.77;;;;;;;;;;5011538;28;20395;-77
2021/09/29 12:45:57;;;;;;;1.98;1.17;;;;;;;;;;5008081;28;20065;-76
2021/09/29 12:48:30;;;;;;;4.07;1.20;;;;;;;;;;4991568;28;20054;-77
2021/09/29 12:51:03;;;;;;;1.58;1.05;;;;;;;;;;4992200;28;20054;-77
2021/09/29 12:58:29;;;;;;;1.33;1.13;;;;;;;;;;4991826;28;20551;-77
2021/09/29 13:00:58;;;;;;;2.20;1.15;;;;;;;;;;5003532;28;20387;-77
2021/09/29 13:03:28;;;;;;;0.80;0.80;;;;;;;;;;5011383;28;20410;-77
2021/09/29 13:05:58;;;;;;;3.80;1.30;;;;;;;;;;5010800;28;20514;-77
2021/09/29 13:08:26;;;;;;;1.90;0.93;;;;;;;;;;5010810;28;20053;-77
2021/09/29 13:10:55;;;;;;;1.40;1.25;;;;;;;;;;5010637;28;20060;-77
2021/09/29 13:13:23;;;;;;;4.22;1.10;;;;;;;;;;5010858;28;20049;-76
2021/09/29 13:15:53;;;;;;;0.95;0.70;;;;;;;;;;5011381;28;20050;-77
2021/09/29 13:21:14;;;;;;;2.40;0.85;;;;;;;;;;5007310;28;20062;-78
2021/09/29 13:23:50;;;;;;;1.35;1.35;;;;;;;;;;5009021;28;20054;-80
2021/09/29 13:37:06;;;;;;;5.10;1.38;;;;;;;;;;5008455;28;20076;-79
2021/09/29 13:39:34;;;;;;;1.92;1.83;;;;;;;;;;5009088;28;20399;-80
2021/09/29 13:42:03;;;;;;;3.13;1.30;;;;;;;;;;4990927;28;20061;-79
2021/09/29 13:44:31;;;;;;;1.48;1.00;;;;;;;;;;5009826;28;20046;-78
2021/09/29 13:46:59;;;;;;;2.75;1.55;;;;;;;;;;5010230;28;20046;-80
2021/09/29 13:49:27;;;;;;;1.40;1.30;;;;;;;;;;5007868;28;20042;-80
2021/09/29 13:51:58;;;;;;;1.75;0.90;;;;;;;;;;5009745;28;20491;-79
2021/09/29 13:54:26;;;;;;;1.70;1.50;;;;;;;;;;5009227;28;20049;-79
2021/09/29 14:29:42;;;;;;;1.20;1.10;;;;;;;;;;5009004;28;20068;-79
2021/09/29 14:33:17;;;;;;;2.22;1.42;;;;;;;;;;5009179;28;20053;-79
2021/09/29 14:35:07;;;;;;;1.98;1.23;;;;;;;;;;5001877;28;20062;-79
2021/09/29 14:37:35;;;;;;;7.40;2.08;;;;;;;;;;5007981;28;20049;-81
2021/09/29 14:40:03;;;;;;;4.72;1.02;;;;;;;;;;5008331;28;20479;-80
2021/09/29 14:42:31;;;;;;;4.35;2.05;;;;;;;;;;5007231;28;20056;-80
2021/09/29 14:45:00;;;;;;;7.75;2.30;;;;;;;;;;5008843;28;20457;-79
2021/09/29 14:47:29;;;;;;;5.38;1.83;;;;;;;;;;4991864;28;20057;-80
2021/09/29 14:49:56;;;;;;;3.17;1.55;;;;;;;;;;4988642;28;20407;-79
2021/09/29 14:52:24;;;;;;;5.32;1.50;;;;;;;;;;4989807;28;20065;-79
2021/09/29 14:54:52;;;;;;;1.95;1.45;;;;;;;;;;4986805;28;20042;-80
2021/09/29 14:57:20;;;;;;;0.93;0.93;;;;;;;;;;5000844;28;20402;-80
2021/09/29 14:59:50;;;;;;;1.55;1.45;;;;;;;;;;5009334;28;20050;-80
2021/09/29 15:02:18;;;;;;;1.88;1.77;;;;;;;;;;5008696;28;20042;-80
2021/09/29 15:04:47;;;;;;;1.52;1.42;;;;;;;;;;5008686;28;20805;-80
2021/09/29 15:07:15;;;;;;;2.15;1.55;;;;;;;;;;5008982;28;20054;-80
2021/09/29 15:09:43;;;;;;;1.60;1.50;;;;;;;;;;4990924;28;20896;-80
2021/09/29 15:12:11;;;;;;;3.35;1.55;;;;;;;;;;5008731;28;20056;-80
2021/09/29 15:17:56;;;;;;;1.37;1.17;;;;;;;;;;4996084;28;20049;-80
2021/09/29 15:20:42;;;;;;;4.30;1.80;;;;;;;;;;4994144;28;20317;-80
2021/09/29 15:23:24;;;;;;;1.92;1.70;;;;;;;;;;5001974;28;20046;-80
2021/09/29 15:26:10;;;;;;;1.55;1.08;;;;;;;;;;4986951;28;20073;-80
2021/09/29 15:48:18;;;;;;;1.25;1.20;;;;;;;;;;5012621;28;20407;-81
2021/09/29 15:56:20;;;;;;;2.40;1.60;;;;;;;;;;5011562;28;20042;-80
2021/09/29 16:04:10;;;;;;;2.22;1.42;;;;;;;;;;5011947;28;20050;-80
2021/09/29 16:06:57;;;;;;;1.70;1.60;;;;;;;;;;5011304;28;20050;-80
2021/09/29 16:20:41;;;;;;;8.80;1.80;;;;;;;;;;5011361;28;20053;-80
2021/09/29 16:24:02;;;;;;;2.95;2.67;;;;;;;;;;5011125;28;20050;-80
2021/09/29 16:31:28;;;;;;;5.40;1.60;;;;;;;;;;4992041;28;20078;-80
2021/09/29 16:34:05;;;;;;;2.08;1.45;;;;;;;;;;4990201;28;20054;-82
2021/09/29 16:36:32;;;;;;;5.70;1.92;;;;;;;;;;4974091;28;20061;-81
2021/09/29 16:39:00;;;;;;;1.60;1.50;;;;;;;;;;4974500;28;20054;-81
2021/09/29 16:41:29;;;;;;;1.60;1.50;;;;;;;;;;5000878;28;20100;-83
2021/09/29 16:43:59;;;;;;;2.65;1.55;;;;;;;;;;5011709;28;20050;-83
2021/09/29 16:46:31;;;;;;;1.80;1.67;;;;;;;;;;4993542;28;20495;-81
2021/09/29 16:49:03;;;;;;;1.77;1.15;;;;;;;;;;5010513;28;20038;-82
2021/09/29 16:51:42;;;;;;;1.42;1.33;;;;;;;;;;5031999;28;20046;-83
2021/09/29 16:54:18;;;;;;;1.10;1.00;;;;;;;;;;5009342;28;20046;-79
2021/09/29 16:56:50;;;;;;;1.60;1.45;;;;;;;;;;5009854;28;20038;-80
2021/09/29 17:01:59;;;;;;;1.55;1.10;;;;;;;;;;5008480;28;20049;-81
2021/09/29 17:04:31;;;;;;;3.72;1.40;;;;;;;;;;5010572;28;20052;-81
2021/09/29 17:07:03;;;;;;;1.35;1.25;;;;;;;;;;5010420;28;20042;-80
2021/09/29 17:09:34;;;;;;;1.92;1.80;;;;;;;;;;5009195;28;20522;-80
2021/09/29 17:12:03;;;;;;;1.52;1.42;;;;;;;;;;5010394;28;20042;-80
2021/09/29 17:14:31;;;;;;;1.70;1.60;;;;;;;;;;5010285;28;20058;-80
2021/09/29 17:16:59;;;;;;;2.35;2.15;;;;;;;;;;5004839;28;20050;-80
2021/09/29 17:19:27;;;;;;;1.38;1.27;;;;;;;;;;4987437;28;20411;-81
2021/09/29 17:21:58;;;;;;;2.55;1.60;;;;;;;;;;4998392;28;20050;-81
2021/09/29 17:24:27;;;;;;;3.65;2.42;;;;;;;;;;4995145;28;20491;-80
2021/09/29 17:26:56;;;;;;;1.65;1.55;;;;;;;;;;5006485;28;20042;-80
2021/09/29 17:29:27;;;;;;;2.90;2.67;;;;;;;;;;5006830;28;20046;-80
2021/09/29 17:32:05;;;;;;;1.13;1.02;;;;;;;;;;5000021;28;20087;-79
2021/09/29 17:34:57;;;;;;;2.47;1.40;;;;;;;;;;5000841;28;20050;-79
2021/09/29 17:54:21;;;;;;;3.70;1.55;;;;;;;;;;4913611;29;20045;-79
2021/09/29 17:56:49;;;;;;;2.78;1.60;;;;;;;;;;4909022;29;20057;-79
2021/09/29 17:59:21;;;;;;;5.22;1.52;;;;;;;;;;4893629;29;20535;-80
2021/09/29 18:01:51;;;;;;;2.78;2.58;;;;;;;;;;4883024;29;20447;-79
2021/09/29 18:04:24;;;;;;;2.50;1.65;;;;;;;;;;4860863;29;20049;-81
2021/09/29 18:09:39;;;;;;;2.25;1.70;;;;;;;;;;4872938;29;20099;-80
2021/09/29 18:12:10;;;;;;;;;;;;;;;;;;4873171;29;20053;-82
2021/09/29 18:14:41;;;;;;;1.90;1.45;;;;;;;;;;4875395;29;19923;-82
2021/09/29 18:17:17;;;;;;;2.72;1.27;;;;;;;;;;4891884;29;20066;-82
2021/09/29 18:19:45;;;;;;;1.92;1.80;;;;;;;;;;4885964;29;20060;-82
2021/09/29 18:22:13;;;;;;;0.90;0.90;;;;;;;;;;4892309;29;20064;-84
2021/09/29 18:24:41;;;;;;;5.35;1.45;;;;;;;;;;4873404;29;20061;-83
2021/09/29 18:27:10;;;;;;;0.77;0.77;;;;;;;;;;4854078;29;20069;-84
2021/09/29 18:29:38;;;;;;;2.05;1.30;;;;;;;;;;4855143;29;20046;-84
2021/09/29 18:32:07;;;;;;;0.60;0.60;;;;;;;;;;4855142;29;20061;-87
2021/09/29 18:34:37;;;;;;;0.40;0.40;;;;;;;;;;4870177;29;20063;-80
2021/09/29 18:37:07;;;;;;;2.78;1.25;;;;;;;;;;4902740;29;20058;-79
2021/09/29 18:39:37;;;;;;;0.73;0.73;;;;;;;;;;4933142;29;20071;-82
2021/09/29 18:42:07;;;;;;;1.05;0.70;;;;;;;;;;4925662;29;20059;-80
2021/09/29 18:44:41;;;;;;;1.05;0.95;;;;;;;;;;4913441;29;20044;-79
2021/09/29 18:47:10;;;;;;;2.75;2.55;;;;;;;;;;4900005;29;20051;-81
2021/09/29 18:49:40;;;;;;;0.85;0.70;;;;;;;;;;4912472;29;20040;-79
2021/09/29 18:52:12;;;;;;;0.60;0.60;;;;;;;;;;4913828;29;20052;-79
2021/09/29 19:08:20;;;;;;;0.60;0.60;;;;;;;;;;4913889;29;20052;-79
2021/09/29 19:10:48;;;;;;;0.85;0.73;;;;;;;;;;4911008;29;20059;-79
2021/09/29 19:13:21;;;;;;;0.47;0.47;;;;;;;;;;4886208;29;20064;-79
2021/09/29 19:15:54;;;;;;;0.70;0.70;;;;;;;;;;4875002;29;20056;-80
2021/09/29 19:18:31;;;;;;;0.70;0.70;;;;;;;;;;4875514;29;20119;-80
2021/09/29 19:21:02;;;;;;;0.90;0.90;;;;;;;;;;4861890;29;20407;-79
2021/09/29 19:23:30;;;;;;;0.98;0.98;;;;;;;;;;4870151;29;20483;-80
2021/09/29 19:25:58;;;;;;;0.50;0.50;;;;;;;;;;4896438;29;20053;-80
2021/09/29 19:28:38;;;;;;;0.77;0.77;;;;;;;;;;4881444;29;20048;-80
2021/09/29 19:34:27;;;;;;;0.63;0.60;;;;;;;;;;5217458;23;20414;-80
2021/09/29 19:36:58;;;;;;;0.52;0.52;;;;;;;;;;4919371;29;20059;-79